Time;durP1;ratioP1;P1;durP2;ratioP2;P2;SDS_P1;SDS_P2;PMS_P1;PMS_P2;Temp;Humidity;BMP_temperature;BMP_pressure;BME280_temperature;BME280_humidity;BME280_pressure;Samples;Min_cycle;Max_cycle;Signal;HPM_P1;HPM_P2
2022/06/23 00:01:12;;;;;;;8.02;3.40;;;15.80;99.90;;;;;;5118853;27;20035;-73
2022/06/23 00:03:38;;;;;;;5.28;3.30;;;;;;;;;;5119154;27;20035;-73
2022/06/23 00:06:07;;;;;;;5.57;3.70;;;15.60;99.90;;;;;;5119149;27;20036;-73
2022/06/23 00:08:43;;;;;;;6.47;3.53;;;15.60;99.90;;;;;;5101929;27;20039;-73
2022/06/23 00:11:24;;;;;;;4.43;3.60;;;15.50;99.90;;;;;;5118798;27;20531;-73
2022/06/23 00:13:51;;;;;;;8.15;4.80;;;15.40;99.90;;;;;;5118811;27;20074;-73
2022/06/23 00:16:26;;;;;;;5.55;3.65;;;15.50;99.90;;;;;;5118729;27;20119;-73
2022/06/23 00:18:52;;;;;;;8.07;4.53;;;15.50;99.90;;;;;;5101393;27;20078;-73
2022/06/23 00:21:32;;;;;;;5.95;3.88;;;15.60;99.90;;;;;;5101520;27;20085;-73
2022/06/23 00:24:02;;;;;;;6.85;3.90;;;15.30;99.90;;;;;;5118545;27;20043;-73
2022/06/23 00:26:31;;;;;;;6.05;3.85;;;15.50;99.90;;;;;;5118458;27;20039;-73
2022/06/23 00:29:13;;;;;;;6.57;4.28;;;16.30;99.90;;;;;;5118150;27;20035;-73
2022/06/23 00:31:54;;;;;;;6.50;4.18;;;15.40;99.90;;;;;;5118937;27;20462;-75
2022/06/23 00:34:39;;;;;;;5.95;3.95;;;15.50;99.90;;;;;;5118308;27;20032;-73
2022/06/23 00:37:10;;;;;;;7.72;4.82;;;15.50;99.90;;;;;;5118613;27;20031;-73
2022/06/23 00:39:50;;;;;;;6.47;4.40;;;15.20;99.90;;;;;;5118156;27;20134;-73
2022/06/23 00:42:31;;;;;;;7.00;5.05;;;;;;;;;;5118687;27;20070;-73
2022/06/23 00:45:02;;;;;;;10.27;4.70;;;15.50;99.90;;;;;;5117961;27;20052;-73
2022/06/23 00:47:39;;;;;;;6.32;4.82;;;15.50;99.90;;;;;;5118226;27;20383;-72
2022/06/23 00:50:20;;;;;;;8.75;4.47;;;;;;;;;;5117870;27;20039;-72
2022/06/23 00:52:56;;;;;;;13.30;5.15;;;14.30;99.90;;;;;;5117940;27;20035;-72
2022/06/23 00:55:34;;;;;;;9.50;5.82;;;14.40;99.90;;;;;;5101213;27;20051;-72
2022/06/23 00:58:05;;;;;;;7.05;4.93;;;15.20;99.90;;;;;;5118123;27;20544;-72
2022/06/23 01:00:35;;;;;;;9.32;5.55;;;;;;;;;;5117918;27;20035;-72
2022/06/23 01:03:21;;;;;;;9.57;5.78;;;14.20;99.90;;;;;;5100903;27;20065;-72
2022/06/23 01:05:59;;;;;;;9.18;6.20;;;14.40;99.90;;;;;;5117864;27;20042;-72
2022/06/23 01:08:46;;;;;;;9.77;6.40;;;16.20;99.90;;;;;;5117671;27;20071;-73
2022/06/23 01:11:24;;;;;;;10.98;6.80;;;14.90;99.90;;;;;;5117570;27;20479;-72
2022/06/23 01:14:23;;;;;;;9.20;6.18;;;14.90;99.90;;;;;;5117456;27;20118;-72
2022/06/23 01:16:55;;;;;;;13.40;7.20;;;14.50;99.90;;;;;;5103907;27;20133;-72
2022/06/23 01:19:45;;;;;;;12.00;7.37;;;15.90;99.90;;;;;;5117668;27;20532;-73
2022/06/23 01:22:29;;;;;;;10.70;6.80;;;15.20;99.90;;;;;;5117300;27;20071;-72
2022/06/23 01:24:55;;;;;;;8.88;7.20;;;;;;;;;;5117340;27;20159;-73
2022/06/23 01:27:42;;;;;;;9.70;7.20;;;15.70;99.90;;;;;;5117167;27;20058;-72
2022/06/23 01:30:11;;;;;;;11.95;7.47;;;14.80;99.90;;;;;;5117234;27;20074;-72
2022/06/23 01:32:50;;;;;;;9.90;6.75;;;15.00;99.90;;;;;;5135502;27;20386;-72
2022/06/23 01:35:32;;;;;;;10.00;6.82;;;14.80;99.90;;;;;;5117058;27;20081;-72
2022/06/23 01:38:10;;;;;;;11.38;6.97;;;14.90;99.90;;;;;;5116962;27;20081;-72
2022/06/23 01:40:48;;;;;;;11.85;7.05;;;14.70;99.90;;;;;;5116410;27;20125;-72
2022/06/23 01:43:25;;;;;;;11.43;7.65;;;14.70;99.90;;;;;;5116859;27;20114;-72
2022/06/23 01:46:04;;;;;;;13.10;8.23;;;14.70;99.90;;;;;;5116863;27;20035;-72
2022/06/23 01:48:56;;;;;;;11.52;8.23;;;14.80;99.90;;;;;;5116810;27;20114;-72
2022/06/23 01:51:30;;;;;;;11.70;8.02;;;14.40;99.90;;;;;;5116760;27;20126;-72
2022/06/23 01:54:11;;;;;;;15.43;9.40;;;14.70;99.90;;;;;;5116751;27;20054;-70
2022/06/23 01:56:51;;;;;;;14.07;8.50;;;14.70;99.90;;;;;;5116870;27;20058;-70
2022/06/23 01:59:40;;;;;;;13.10;8.77;;;14.80;99.90;;;;;;5116709;27;20477;-72
2022/06/23 02:02:16;;;;;;;11.43;8.90;;;14.70;99.90;;;;;;5116461;27;20049;-69
2022/06/23 02:05:06;;;;;;;11.90;8.93;;;14.60;99.90;;;;;;5116563;27;20031;-70
2022/06/23 02:07:46;;;;;;;17.83;9.85;;;14.70;99.90;;;;;;5116390;27;20043;-70
2022/06/23 02:10:21;;;;;;;15.40;8.93;;;14.50;99.90;;;;;;5099939;27;20360;-70
2022/06/23 02:13:01;;;;;;;13.07;8.52;;;13.40;99.90;;;;;;5116315;27;20057;-70
2022/06/23 02:15:27;;;;;;;15.07;9.20;;;;;;;;;;5116603;27;20150;-70
2022/06/23 02:18:06;;;;;;;14.10;9.45;;;14.80;99.90;;;;;;5116203;27;20050;-70
2022/06/23 02:20:52;;;;;;;14.10;9.15;;;;;;;;;;5116543;27;20050;-71
2022/06/23 02:23:18;;;;;;;15.00;9.40;;;;;;;;;;5116173;27;20497;-71
2022/06/23 02:25:49;;;;;;;15.07;9.10;;;;;;;;;;5099253;27;20087;-70
2022/06/23 02:28:19;;;;;;;17.00;9.10;;;;;;;;;;5099566;27;20447;-71
2022/06/23 02:31:03;;;;;;;14.90;9.68;;;14.80;99.90;;;;;;5116206;27;20455;-71
2022/06/23 02:33:38;;;;;;;14.85;9.52;;;15.60;99.90;;;;;;5116252;28;20375;-71
2022/06/23 02:36:41;;;;;;;14.30;9.52;;;14.80;99.90;;;;;;5099400;28;20055;-71
2022/06/23 02:39:16;;;;;;;15.73;9.18;;;14.60;99.90;;;;;;5116182;27;20042;-71
2022/06/23 02:41:52;;;;;;;15.82;9.38;;;15.50;99.90;;;;;;5115898;27;20035;-70
2022/06/23 02:44:23;;;;;;;17.67;9.80;;;15.00;99.90;;;;;;5116050;27;20069;-71
2022/06/23 02:47:17;;;;;;;16.40;9.25;;;14.50;99.90;;;;;;5099019;28;20035;-70
2022/06/23 02:50:02;;;;;;;12.85;8.90;;;14.30;99.90;;;;;;5115967;27;20510;-71
2022/06/23 02:52:55;;;;;;;14.60;9.88;;;14.40;99.90;;;;;;5116128;28;20035;-71
2022/06/23 02:55:43;;;;;;;11.90;9.30;;;14.50;99.90;;;;;;5098819;28;20045;-71
2022/06/23 02:58:23;;;;;;;12.85;9.75;;;13.40;99.90;;;;;;5115887;28;20122;-71
2022/06/23 03:01:05;;;;;;;15.25;9.43;;;14.20;99.90;;;;;;5115575;28;20043;-70
2022/06/23 03:03:31;;;;;;;14.30;9.50;;;;;;;;;;5115767;28;20043;-70
2022/06/23 03:05:57;;;;;;;19.98;10.48;;;;;;;;;;5115723;28;20035;-70
2022/06/23 03:08:35;;;;;;;13.35;9.85;;;14.40;99.90;;;;;;5099092;28;20115;-70
2022/06/23 03:11:19;;;;;;;15.15;9.50;;;14.40;99.90;;;;;;5115854;28;20040;-71
2022/06/23 03:13:51;;;;;;;13.02;9.50;;;14.30;99.90;;;;;;5098660;28;20051;-70
2022/06/23 03:16:17;;;;;;;15.97;10.53;;;;;;;;;;5115721;28;20103;-71
2022/06/23 03:18:57;;;;;;;13.57;9.55;;;14.40;99.90;;;;;;5115399;28;20293;-71
2022/06/23 03:21:40;;;;;;;13.80;9.25;;;14.20;99.90;;;;;;5115753;28;20057;-70
2022/06/23 03:24:09;;;;;;;14.23;9.88;;;14.20;99.90;;;;;;5098881;28;20043;-71
2022/06/23 03:26:42;;;;;;;15.73;10.43;;;14.10;99.90;;;;;;5115794;28;20047;-71
2022/06/23 03:29:16;;;;;;;15.20;9.57;;;15.10;99.90;;;;;;5133950;28;20047;-71
2022/06/23 03:32:06;;;;;;;13.88;9.80;;;14.50;99.90;;;;;;5115391;28;20424;-71
2022/06/23 03:34:46;;;;;;;16.42;10.07;;;14.30;99.90;;;;;;5097530;28;20043;-71
2022/06/23 03:37:21;;;;;;;14.60;9.85;;;14.50;99.90;;;;;;5115307;28;20071;-70
2022/06/23 03:42:40;;;;;;;15.88;10.38;;;14.90;99.90;;;;;;5115322;28;20054;-70
2022/06/23 03:45:34;;;;;;;14.82;10.20;;;14.30;99.90;;;;;;5115361;28;20092;-71
2022/06/23 03:48:00;;;;;;;16.38;10.98;;;;;;;;;;5098802;28;20046;-71
2022/06/23 03:50:29;;;;;;;15.93;10.02;;;14.20;99.90;;;;;;5115544;28;20903;-71
2022/06/23 03:53:01;;;;;;;16.33;10.63;;;14.30;99.90;;;;;;5115176;28;20478;-71
2022/06/23 03:55:36;;;;;;;13.55;9.95;;;15.30;99.90;;;;;;5115467;28;20066;-71
2022/06/23 03:58:22;;;;;;;15.95;10.77;;;14.40;99.90;;;;;;5115152;28;20039;-70
2022/06/23 04:01:06;;;;;;;15.40;10.27;;;14.10;99.90;;;;;;5115039;28;20039;-71
2022/06/23 04:03:51;;;;;;;17.05;10.27;;;14.90;99.90;;;;;;5117968;27;20168;-70
2022/06/23 04:06:35;;;;;;;15.05;11.23;;;14.10;99.90;;;;;;5119059;27;20471;-70
2022/06/23 04:09:01;;;;;;;14.77;9.82;;;;;;;;;;5101945;27;20035;-71
2022/06/23 04:11:44;;;;;;;16.77;10.93;;;14.20;99.90;;;;;;5118772;27;20436;-71
2022/06/23 04:14:19;;;;;;;17.77;10.50;;;14.10;99.90;;;;;;5118787;27;20047;-71
2022/06/23 04:16:49;;;;;;;16.02;10.65;;;14.10;99.90;;;;;;5118562;27;20092;-71
2022/06/23 04:19:22;;;;;;;15.05;10.15;;;14.10;99.90;;;;;;5118419;27;20086;-71
2022/06/23 04:21:50;;;;;;;14.10;10.18;;;14.30;99.90;;;;;;5118653;27;20076;-71
2022/06/23 04:24:20;;;;;;;17.42;9.88;;;14.20;99.90;;;;;;5101759;27;20062;-71
2022/06/23 04:26:48;;;;;;;14.48;10.27;;;;;;;;;;5101445;27;20039;-71
2022/06/23 04:29:29;;;;;;;14.35;9.90;;;15.40;99.90;;;;;;5118500;27;20039;-71
2022/06/23 04:32:02;;;;;;;15.63;10.35;;;14.40;99.90;;;;;;5118756;27;20115;-71
2022/06/23 04:34:33;;;;;;;14.15;10.32;;;14.10;99.90;;;;;;5118350;27;20506;-71
2022/06/23 04:36:59;;;;;;;17.20;10.75;;;;;;;;;;5118554;27;20057;-70
2022/06/23 04:39:25;;;;;;;17.77;11.25;;;;;;;;;;5101496;27;20069;-70
2022/06/23 04:42:19;;;;;;;16.98;10.32;;;13.70;99.90;;;;;;5118540;27;20039;-70
2022/06/23 04:44:54;;;;;;;15.45;10.77;;;14.20;99.90;;;;;;5118469;27;20047;-70
2022/06/23 04:47:29;;;;;;;16.45;9.95;;;14.40;99.90;;;;;;5118103;27;20042;-70
2022/06/23 04:50:00;;;;;;;15.60;10.00;;;14.40;99.90;;;;;;5117938;27;20047;-70
2022/06/23 04:52:43;;;;;;;19.85;10.50;;;14.40;99.90;;;;;;5118406;27;20083;-70
2022/06/23 04:55:18;;;;;;;16.88;10.60;;;14.60;99.90;;;;;;5118003;27;20487;-70
2022/06/23 04:57:48;;;;;;;15.50;10.48;;;;;;;;;;5117912;27;20039;-70
2022/06/23 05:00:37;;;;;;;14.80;10.60;;;14.30;99.90;;;;;;5118003;27;20086;-70
2022/06/23 05:03:24;;;;;;;14.40;9.55;;;14.50;99.90;;;;;;5117863;27;20070;-70
2022/06/23 05:06:24;;;;;;;15.82;10.90;;;14.50;99.90;;;;;;5118019;27;20043;-70
2022/06/23 05:08:51;;;;;;;15.48;10.20;;;;;;;;;;5117729;27;20042;-70
2022/06/23 05:11:39;;;;;;;17.40;10.35;;;14.70;99.90;;;;;;5100685;27;20394;-70
2022/06/23 05:14:31;;;;;;;15.35;9.95;;;14.70;99.90;;;;;;5116650;27;20039;-70
2022/06/23 05:17:20;;;;;;;15.13;9.97;;;14.70;99.90;;;;;;5117302;27;20051;-70
2022/06/23 05:19:48;;;;;;;15.38;10.27;;;14.90;99.90;;;;;;5117342;27;20555;-70
2022/06/23 05:22:38;;;;;;;16.77;10.45;;;15.20;99.90;;;;;;5117335;27;20398;-70
2022/06/23 05:25:38;;;;;;;16.52;10.60;;;15.10;99.90;;;;;;5117688;27;20062;-70
2022/06/23 05:28:09;;;;;;;16.45;9.93;;;15.20;99.90;;;;;;5117224;27;20042;-70
2022/06/23 05:30:40;;;;;;;15.70;9.75;;;15.20;99.90;;;;;;5117334;27;20458;-70
2022/06/23 05:33:07;;;;;;;15.07;10.23;;;;;;;;;;5116995;27;20475;-70
2022/06/23 05:35:43;;;;;;;17.80;11.23;;;15.40;99.90;;;;;;5117037;27;20593;-70
2022/06/23 05:38:21;;;;;;;15.23;9.65;;;15.50;99.90;;;;;;5100111;27;20031;-70
2022/06/23 05:40:49;;;;;;;15.68;10.00;;;14.30;99.90;;;;;;5117073;27;20390;-70
2022/06/23 05:43:17;;;;;;;17.45;10.63;;;15.40;99.90;;;;;;5100343;27;20027;-72
2022/06/23 05:45:47;;;;;;;15.38;9.10;;;15.70;99.90;;;;;;5116971;27;20122;-72
2022/06/23 05:48:20;;;;;;;16.73;9.75;;;14.80;99.90;;;;;;5117225;27;20445;-73
2022/06/23 05:51:07;;;;;;;15.15;9.68;;;16.50;99.90;;;;;;5116862;27;20053;-73
2022/06/23 05:53:56;;;;;;;17.00;9.90;;;15.50;99.90;;;;;;5116594;27;20043;-73
2022/06/23 05:56:50;;;;;;;16.88;10.10;;;15.60;99.90;;;;;;5117181;27;20050;-73
2022/06/23 05:59:42;;;;;;;14.07;9.73;;;15.80;99.90;;;;;;5116883;27;20039;-73
2022/06/23 06:02:28;;;;;;;17.75;10.13;;;16.10;99.90;;;;;;5098867;27;20046;-70
2022/06/23 06:04:58;;;;;;;15.30;10.30;;;16.00;99.90;;;;;;5116747;27;20031;-70
2022/06/23 06:07:32;;;;;;;14.23;9.68;;;16.10;99.90;;;;;;5116371;27;20092;-70
2022/06/23 06:09:59;;;;;;;16.60;10.23;;;16.20;99.90;;;;;;5116455;27;20495;-70
2022/06/23 06:12:31;;;;;;;16.50;10.48;;;16.20;99.90;;;;;;5116623;27;20394;-70
2022/06/23 06:15:27;;;;;;;15.73;9.68;;;16.20;99.90;;;;;;5116324;27;20039;-70
2022/06/23 06:18:02;;;;;;;17.02;9.98;;;16.50;99.90;;;;;;5085950;27;20448;-70
2022/06/23 06:20:27;;;;;;;16.25;10.13;;;17.00;99.90;;;;;;5116256;27;20092;-70
2022/06/23 06:23:02;;;;;;;15.38;10.05;;;17.00;99.90;;;;;;5099129;27;20035;-71
2022/06/23 06:25:39;;;;;;;14.20;10.48;;;16.60;99.90;;;;;;5116086;27;20110;-70
2022/06/23 06:28:11;;;;;;;15.18;9.98;;;;;;;;;;5116015;27;20042;-70
2022/06/23 06:30:40;;;;;;;16.45;9.55;;;16.70;99.90;;;;;;5116353;27;20391;-70
2022/06/23 06:33:23;;;;;;;15.90;9.82;;;16.60;99.90;;;;;;5115906;27;20125;-70
2022/06/23 06:35:54;;;;;;;15.68;9.57;;;16.30;99.90;;;;;;5116053;27;20043;-70
2022/06/23 06:38:22;;;;;;;17.13;10.30;;;16.80;99.90;;;;;;5099352;27;20155;-70
2022/06/23 06:40:51;;;;;;;16.17;9.93;;;16.90;99.90;;;;;;5115955;27;20132;-70
2022/06/23 06:43:20;;;;;;;16.48;10.25;;;17.00;99.90;;;;;;5116585;27;20039;-70
2022/06/23 06:45:46;;;;;;;16.38;9.90;;;16.90;99.90;;;;;;5115865;28;20049;-70
2022/06/23 06:48:23;;;;;;;15.85;10.45;;;17.10;99.90;;;;;;5116364;28;20114;-70
2022/06/23 06:50:55;;;;;;;15.25;9.73;;;17.20;99.90;;;;;;5115984;28;20122;-70
2022/06/23 06:53:25;;;;;;;14.35;10.35;;;17.50;99.90;;;;;;5115657;28;20047;-70
2022/06/23 06:55:59;;;;;;;16.45;9.75;;;18.20;99.90;;;;;;5115749;28;20050;-70
2022/06/23 06:58:28;;;;;;;15.63;10.13;;;;;;;;;;5100080;28;20039;-70
2022/06/23 07:01:09;;;;;;;16.00;10.15;;;17.50;99.90;;;;;;5098785;28;20049;-70
2022/06/23 07:03:37;;;;;;;17.08;10.38;;;17.50;99.90;;;;;;5115750;28;20047;-70
2022/06/23 07:06:19;;;;;;;14.63;10.25;;;17.80;99.90;;;;;;5115620;28;20035;-70
2022/06/23 07:08:47;;;;;;;;;;;17.80;99.90;;;;;;5134702;28;20494;-70
2022/06/23 07:11:36;;;;;;;17.85;10.20;;;18.40;99.90;;;;;;5115514;28;19915;-70
2022/06/23 07:14:33;;;;;;;15.82;10.35;;;18.20;99.90;;;;;;5115154;28;20047;-70
2022/06/23 07:17:09;;;;;;;17.63;9.63;;;18.70;99.90;;;;;;5115608;28;20076;-70
2022/06/23 07:19:35;;;;;;;16.17;10.68;;;;;;;;;;5115525;28;20051;-70
2022/06/23 07:22:10;;;;;;;16.88;9.88;;;18.80;99.90;;;;;;5115485;28;20038;-70
2022/06/23 07:24:52;;;;;;;22.88;10.20;;;18.90;99.90;;;;;;5115386;28;20035;-70
2022/06/23 07:27:34;;;;;;;16.50;9.50;;;18.20;99.90;;;;;;5115249;28;20035;-70
2022/06/23 07:30:06;;;;;;;16.20;10.13;;;18.40;99.90;;;;;;5098732;28;20086;-70
2022/06/23 07:32:32;;;;;;;12.65;8.98;;;;;;;;;;5098821;28;20128;-70
2022/06/23 07:35:07;;;;;;;16.23;9.15;;;18.30;99.90;;;;;;5115457;28;20139;-70
2022/06/23 07:37:43;;;;;;;14.77;10.50;;;18.50;99.90;;;;;;5099664;27;20050;-70
2022/06/23 07:40:11;;;;;;;16.77;10.18;;;17.90;99.90;;;;;;5119355;27;20411;-70
2022/06/23 07:42:50;;;;;;;15.73;9.32;;;;;;;;;;5119328;27;20043;-70
2022/06/23 07:45:25;;;;;;;13.73;9.50;;;19.00;99.90;;;;;;5119400;27;20043;-70
2022/06/23 07:47:51;;;;;;;14.15;9.15;;;19.00;99.90;;;;;;5102284;27;20117;-70
2022/06/23 07:50:17;;;;;;;19.85;9.65;;;19.40;99.90;;;;;;5119418;27;20455;-70
2022/06/23 07:52:45;;;;;;;14.40;9.40;;;19.00;99.90;;;;;;5119165;27;20078;-70
2022/06/23 07:55:23;;;;;;;15.48;9.30;;;18.50;99.90;;;;;;5119316;27;20101;-70
2022/06/23 07:57:49;;;;;;;13.15;8.88;;;18.70;99.90;;;;;;5119115;27;20046;-70
2022/06/23 08:00:16;;;;;;;13.75;9.13;;;18.70;99.90;;;;;;5118950;27;20050;-70
2022/06/23 08:03:00;;;;;;;17.52;8.43;;;20.20;99.90;;;;;;5118771;27;20046;-71
2022/06/23 08:05:42;;;;;;;13.85;8.60;;;;;;;;;;5118726;27;20430;-71
2022/06/23 08:08:13;;;;;;;15.40;8.38;;;19.40;99.50;;;;;;5119008;27;20130;-71
2022/06/23 08:10:40;;;;;;;13.70;8.20;;;20.20;99.90;;;;;;5101968;27;20058;-71
2022/06/23 08:13:06;;;;;;;12.70;8.13;;;;;;;;;;5118866;27;20429;-70
2022/06/23 08:18:52;;;;;;;15.43;8.63;;;20.60;99.90;;;;;;5118085;27;20059;-70
2022/06/23 08:21:26;;;;;;;14.75;8.75;;;19.80;98.50;;;;;;5118235;27;20043;-70
2022/06/23 08:23:58;;;;;;;13.70;8.25;;;20.40;99.90;;;;;;5118297;27;20042;-70
2022/06/23 08:26:24;;;;;;;11.20;7.70;;;20.20;98.20;;;;;;5118341;27;20420;-70
2022/06/23 08:28:53;;;;;;;14.15;9.38;;;20.10;98.40;;;;;;5118601;27;20376;-71
2022/06/23 08:31:19;;;;;;;15.00;8.40;;;;;;;;;;5118512;27;20066;-71
2022/06/23 08:33:45;;;;;;;11.50;8.63;;;;;;;;;;5118489;27;20066;-71
2022/06/23 08:36:17;;;;;;;13.32;8.27;;;20.70;99.90;;;;;;5118353;27;20125;-70
2022/06/23 08:38:53;;;;;;;12.65;8.13;;;20.70;99.90;;;;;;5118263;27;20043;-70
2022/06/23 08:41:38;;;;;;;18.17;8.52;;;20.40;99.90;;;;;;5136656;27;20479;-71
2022/06/23 08:44:12;;;;;;;12.13;7.47;;;20.90;97.30;;;;;;5118535;27;20046;-71
2022/06/23 08:46:40;;;;;;;10.23;7.85;;;21.10;97.00;;;;;;5118312;27;20043;-70
2022/06/23 08:49:15;;;;;;;12.00;7.47;;;21.40;99.90;;;;;;5117661;27;20491;-71
2022/06/23 08:51:48;;;;;;;14.30;7.43;;;21.00;99.90;;;;;;5100917;27;20483;-71
2022/06/23 08:54:34;;;;;;;11.82;7.13;;;20.50;99.60;;;;;;5118101;27;20046;-70
2022/06/23 08:57:06;;;;;;;10.95;7.28;;;21.40;99.70;;;;;;5118121;27;20035;-70
2022/06/23 08:59:39;;;;;;;11.57;7.13;;;20.90;99.50;;;;;;5118009;27;20483;-71
2022/06/23 09:02:11;;;;;;;16.40;7.80;;;21.40;99.40;;;;;;5117811;27;20048;-71
2022/06/23 09:05:15;;;;;;;12.27;7.57;;;21.90;95.70;;;;;;5117648;27;20039;-71
2022/06/23 09:07:53;;;;;;;10.35;6.70;;;22.20;99.00;;;;;;5117574;27;20472;-71
2022/06/23 09:10:41;;;;;;;12.38;6.70;;;22.20;95.20;;;;;;5117433;27;20039;-71
2022/06/23 09:13:36;;;;;;;11.57;7.00;;;21.80;97.50;;;;;;5117607;27;20563;-70
2022/06/23 09:16:08;;;;;;;13.57;6.55;;;22.50;94.80;;;;;;5117543;27;20035;-70
2022/06/23 09:19:00;;;;;;;13.63;6.15;;;22.30;93.40;;;;;;5117329;27;20043;-71
2022/06/23 09:21:49;;;;;;;10.52;6.70;;;21.90;97.50;;;;;;5117391;27;20055;-70
2022/06/23 09:24:15;;;;;;;9.73;6.88;;;;;;;;;;5100321;27;20073;-71
2022/06/23 09:26:51;;;;;;;12.20;5.55;;;23.20;97.50;;;;;;5117511;27;20031;-71
2022/06/23 09:29:40;;;;;;;13.43;7.10;;;22.90;97.40;;;;;;5135918;27;20383;-71
2022/06/23 09:32:17;;;;;;;13.68;7.57;;;23.40;96.90;;;;;;5117403;27;20142;-71
2022/06/23 09:35:10;;;;;;;15.10;5.90;;;23.00;92.80;;;;;;5117186;27;20078;-71
2022/06/23 09:38:09;;;;;;;8.80;5.32;;;23.20;96.70;;;;;;5117312;27;20046;-71
2022/06/23 09:40:42;;;;;;;8.93;5.32;;;23.90;96.30;;;;;;5116850;27;20364;-71
2022/06/23 09:43:35;;;;;;;16.60;5.57;;;23.60;95.60;;;;;;5117134;27;20081;-71
2022/06/23 09:46:31;;;;;;;13.48;4.97;;;23.50;95.40;;;;;;5116987;27;20034;-71
2022/06/23 09:49:06;;;;;;;9.48;5.30;;;23.70;91.90;;;;;;5116990;27;20068;-71
2022/06/23 09:51:57;;;;;;;10.35;5.70;;;24.30;95.00;;;;;;5116865;27;20042;-71
2022/06/23 09:54:44;;;;;;;11.98;6.05;;;23.70;94.50;;;;;;5099843;27;20463;-70
2022/06/23 09:57:12;;;;;;;8.60;5.65;;;24.10;94.70;;;;;;5116812;27;20087;-71
2022/06/23 09:59:41;;;;;;;8.32;5.50;;;24.30;94.70;;;;;;5116206;28;20505;-71
2022/06/23 10:02:39;;;;;;;17.02;5.68;;;22.90;90.10;;;;;;5099826;27;20125;-71
2022/06/23 10:05:25;;;;;;;11.00;5.65;;;24.20;94.20;;;;;;5090330;27;20134;-71
2022/06/23 10:08:23;;;;;;;8.13;5.10;;;24.10;93.80;;;;;;5116749;27;20035;-71
2022/06/23 10:11:13;;;;;;;10.88;5.30;;;24.80;93.40;;;;;;5116549;27;20114;-71
2022/06/23 10:13:47;;;;;;;10.65;5.45;;;24.80;93.10;;;;;;5099548;27;20062;-71
2022/06/23 10:16:46;;;;;;;8.77;5.18;;;24.60;86.60;;;;;;5116336;27;20035;-71
2022/06/23 10:19:39;;;;;;;8.50;4.18;;;24.20;92.50;;;;;;5095778;28;20138;-71
2022/06/23 10:22:22;;;;;;;9.75;5.55;;;24.80;85.40;;;;;;5112988;28;20043;-71
2022/06/23 10:24:48;;;;;;;9.88;5.68;;;;;;;;;;5113428;28;20035;-71
2022/06/23 10:27:33;;;;;;;7.78;5.07;;;25.00;91.90;;;;;;5112838;28;20039;-71
2022/06/23 10:30:20;;;;;;;12.20;5.28;;;24.90;91.20;;;;;;5112804;28;20040;-71
2022/06/23 10:32:57;;;;;;;9.63;5.53;;;24.60;91.40;;;;;;5113023;28;20044;-71
2022/06/23 10:35:57;;;;;;;9.27;5.50;;;25.50;91.40;;;;;;5112694;28;20044;-71
2022/06/23 10:38:50;;;;;;;16.75;5.07;;;24.90;90.90;;;;;;5094982;28;20044;-71
2022/06/23 10:41:25;;;;;;;8.60;4.47;;;25.60;91.10;;;;;;5095651;28;20053;-70
2022/06/23 10:44:28;;;;;;;10.38;4.70;;;25.80;91.20;;;;;;5112528;28;20047;-71
2022/06/23 10:47:09;;;;;;;12.30;4.13;;;25.70;91.00;;;;;;5112545;28;20035;-71
2022/06/23 10:50:02;;;;;;;8.68;4.10;;;26.00;90.60;;;;;;5095488;28;20047;-71
2022/06/23 10:52:42;;;;;;;7.28;4.18;;;26.00;90.40;;;;;;5112537;28;20434;-71
2022/06/23 10:55:32;;;;;;;7.97;3.63;;;25.60;88.90;;;;;;5112418;28;20043;-71
2022/06/23 10:58:29;;;;;;;11.23;3.50;;;26.00;78.30;;;;;;5112521;28;20089;-71
2022/06/23 11:00:57;;;;;;;6.28;3.30;;;25.60;87.60;;;;;;5112401;28;20100;-71
2022/06/23 11:04:13;;;;;;;10.75;4.40;;;25.80;87.30;;;;;;5112416;28;20035;-71
2022/06/23 11:06:57;;;;;;;6.50;3.80;;;25.90;87.00;;;;;;5067818;28;20050;-71
2022/06/23 11:09:57;;;;;;;7.20;3.90;;;26.40;87.10;;;;;;5112695;28;20040;-71
2022/06/23 11:12:55;;;;;;;8.85;3.90;;;26.30;86.40;;;;;;5115332;28;20043;-71
2022/06/23 11:15:43;;;;;;;6.28;4.00;;;25.90;85.60;;;;;;5099514;28;20044;-71
2022/06/23 11:18:55;;;;;;;14.68;4.10;;;26.60;85.70;;;;;;5116211;28;20483;-71
2022/06/23 11:21:36;;;;;;;9.43;3.65;;;26.20;85.30;;;;;;5115943;28;20054;-71
2022/06/23 11:24:08;;;;;;;10.48;4.32;;;26.80;76.80;;;;;;5116436;28;20043;-71
2022/06/23 11:27:06;;;;;;;9.93;4.07;;;26.90;85.40;;;;;;5116327;28;20039;-71
2022/06/23 11:30:04;;;;;;;8.23;4.35;;;26.80;75.20;;;;;;5116069;28;20408;-70
2022/06/23 11:32:50;;;;;;;8.23;4.07;;;26.90;84.70;;;;;;5116491;28;20105;-70
2022/06/23 11:35:55;;;;;;;8.60;4.00;;;26.90;84.00;;;;;;5116030;28;20050;-70
2022/06/23 11:38:54;;;;;;;9.02;3.83;;;27.40;84.40;;;;;;5094450;28;20516;-71
2022/06/23 11:41:54;;;;;;;8.63;4.97;;;26.60;83.90;;;;;;5115759;28;20476;-71
2022/06/23 11:44:59;;;;;;;9.18;4.90;;;26.90;83.90;;;;;;5116195;28;20403;-71
2022/06/23 11:48:03;;;;;;;6.47;4.20;;;27.10;73.80;;;;;;5115863;28;20051;-71
2022/06/23 11:50:38;;;;;;;10.13;4.30;;;27.20;83.70;;;;;;5115644;28;20047;-71
2022/06/23 11:53:49;;;;;;;9.50;4.80;;;27.60;83.60;;;;;;5115662;28;20441;-71
2022/06/23 11:57:02;;;;;;;8.10;4.22;;;27.50;83.80;;;;;;5115834;28;20055;-71
2022/06/23 11:59:36;;;;;;;10.10;4.22;;;27.60;84.30;;;;;;5017829;28;20048;-71
2022/06/23 12:02:02;;;;;;;9.13;4.43;;;27.90;84.10;;;;;;5017645;28;20033;-72
2022/06/23 12:04:53;;;;;;;7.78;4.40;;;28.00;83.00;;;;;;5073875;28;20044;-71
2022/06/23 12:07:37;;;;;;;9.23;4.20;;;28.30;83.50;;;;;;5115564;28;20040;-71
2022/06/23 12:10:19;;;;;;;9.35;4.57;;;28.10;82.90;;;;;;5115523;28;20046;-71
2022/06/23 12:12:48;;;;;;;9.27;4.78;;;28.10;83.40;;;;;;5098536;28;20051;-71
2022/06/23 12:15:17;;;;;;;12.70;4.63;;;28.20;82.90;;;;;;5115355;28;20498;-71
2022/06/23 12:17:57;;;;;;;13.30;4.40;;;28.40;82.40;;;;;;5115480;28;20060;-71
2022/06/23 12:20:52;;;;;;;12.85;4.63;;;28.30;82.60;;;;;;5115262;28;20136;-71
2022/06/23 12:23:38;;;;;;;11.73;4.75;;;28.20;82.40;;;;;;5114455;28;20097;-71
2022/06/23 12:26:19;;;;;;;9.77;4.70;;;28.40;82.00;;;;;;5115165;28;20069;-71
2022/06/23 12:28:57;;;;;;;10.25;5.03;;;28.40;71.10;;;;;;5115166;28;20039;-71
2022/06/23 12:31:40;;;;;;;9.15;4.63;;;28.60;81.90;;;;;;5115411;28;20047;-71
2022/06/23 12:34:40;;;;;;;13.82;5.40;;;28.80;81.50;;;;;;5097984;28;20040;-71
2022/06/23 12:37:31;;;;;;;13.70;4.95;;;28.90;81.40;;;;;;5114964;28;20104;-72
2022/06/23 12:40:06;;;;;;;11.15;4.82;;;28.70;81.40;;;;;;5114702;28;20043;-72
2022/06/23 12:42:42;;;;;;;9.15;4.72;;;28.40;80.80;;;;;;5115023;28;20043;-71
2022/06/23 12:45:38;;;;;;;8.02;4.88;;;28.90;82.50;;;;;;5114980;28;20064;-72
2022/06/23 12:48:13;;;;;;;11.27;4.90;;;29.00;81.30;;;;;;5114690;28;20483;-72
2022/06/23 12:51:08;;;;;;;15.60;5.45;;;28.90;73.60;;;;;;5114500;28;20089;-71
2022/06/23 12:54:00;;;;;;;15.35;5.43;;;29.40;76.10;;;;;;5111730;28;20051;-71
2022/06/23 12:56:59;;;;;;;9.98;4.80;;;28.90;80.10;;;;;;5114639;28;20039;-71
2022/06/23 12:59:44;;;;;;;9.25;4.97;;;29.50;80.50;;;;;;5114650;28;20239;-71
2022/06/23 13:02:27;;;;;;;11.65;5.00;;;29.20;73.40;;;;;;5114492;28;20123;-71
2022/06/23 13:05:01;;;;;;;11.88;4.93;;;29.10;80.60;;;;;;5114331;28;20070;-72
2022/06/23 13:08:09;;;;;;;11.65;5.15;;;29.40;69.00;;;;;;5114646;28;20386;-72
2022/06/23 13:10:54;;;;;;;9.98;5.40;;;29.50;68.70;;;;;;5113885;28;20086;-71
2022/06/23 13:13:25;;;;;;;15.68;5.43;;;29.70;79.40;;;;;;5114237;28;20122;-72
2022/06/23 13:15:54;;;;;;;;;;;29.50;72.10;;;;;;5114795;28;20061;-71
2022/06/23 13:18:41;;;;;;;12.77;5.53;;;29.60;79.40;;;;;;5114071;28;19941;-71
2022/06/23 13:21:16;;;;;;;8.15;5.13;;;29.80;79.00;;;;;;5114269;28;20074;-71
2022/06/23 13:24:10;;;;;;;8.80;5.40;;;30.00;78.50;;;;;;5114163;28;20170;-72
2022/06/23 13:26:58;;;;;;;9.57;5.32;;;29.80;77.80;;;;;;5113959;28;20042;-71
2022/06/23 13:29:53;;;;;;;10.50;5.35;;;29.60;68.30;;;;;;5113940;28;20036;-72
2022/06/23 13:32:34;;;;;;;13.57;5.15;;;29.90;77.20;;;;;;5096840;28;20070;-72
2022/06/23 13:35:17;;;;;;;13.77;5.00;;;29.60;76.80;;;;;;5112824;28;20051;-72
2022/06/23 13:37:54;;;;;;;12.55;4.75;;;30.00;76.50;;;;;;5096750;28;20309;-72
2022/06/23 13:40:26;;;;;;;10.57;5.38;;;30.50;76.60;;;;;;5113654;28;20041;-72
2022/06/23 13:43:01;;;;;;;10.10;5.05;;;30.50;67.80;;;;;;5113638;28;20040;-72
2022/06/23 13:45:38;;;;;;;5.82;4.57;;;30.60;76.00;;;;;;5113553;28;20036;-72
2022/06/23 13:48:15;;;;;;;8.80;4.78;;;30.10;75.50;;;;;;5113501;28;20085;-72
2022/06/23 13:51:16;;;;;;;14.90;5.72;;;30.70;75.90;;;;;;5113474;28;20079;-72
2022/06/23 13:53:54;;;;;;;13.73;5.30;;;30.70;75.70;;;;;;5113596;28;20126;-72
2022/06/23 13:56:39;;;;;;;10.73;4.88;;;30.30;75.50;;;;;;5090900;27;20378;-72
2022/06/23 13:59:05;;;;;;;10.60;4.95;;;;;;;;;;5089588;28;20134;-71